Terminal Aerodrome Forecast
Issued by NWS Quad Cities IA IL

Home | Current Version | Previous Version | Text Only | Print | Product List | Glossary On
Versions: 1 2 3 4 5 6 7 8 9 10 11 12 13 14 15 16 17 18 19 20 21 22 23 24 25 26 27 28 29 30 31
263
FTUS43 KDVN 201128
TAFDBQ
TAF
KDBQ 201128Z 2012/2112 16014KT P6SM SCT120 WS020/20035KT
     FM201500 20016G23KT P6SM BKN100
     FM201800 23012KT P6SM BKN040
     FM202300 36009KT P6SM BKN050 PROB30 2023/2104 5SM -TSRA
      BKN035CB
     FM210800 05005KT P6SM BKN025=

USA.gov is the U.S. government's official web portal to all federal, state and local government web resources and services.